sensor_id;sensor_type;location;lat;lon;timestamp;pressure;altitude;pressure_sealevel;temperature;humidity
11345;BME280;5727;42.600;23.028;2022-07-22T00:00:59;93801.94;;;21.50;80.40
11345;BME280;5727;42.600;23.028;2022-07-22T00:03:26;93793.97;;;21.43;80.97
11345;BME280;5727;42.600;23.028;2022-07-22T00:05:53;93795.16;;;21.39;81.16
11345;BME280;5727;42.600;23.028;2022-07-22T00:08:20;93803.88;;;21.43;81.07
11345;BME280;5727;42.600;23.028;2022-07-22T00:10:49;93796.28;;;21.41;80.67
11345;BME280;5727;42.600;23.028;2022-07-22T00:13:16;93792.88;;;21.37;80.59
11345;BME280;5727;42.600;23.028;2022-07-22T00:15:42;93798.97;;;21.38;80.30
11345;BME280;5727;42.600;23.028;2022-07-22T00:18:09;93797.47;;;21.33;80.93
11345;BME280;5727;42.600;23.028;2022-07-22T00:20:36;93789.56;;;21.23;80.95
11345;BME280;5727;42.600;23.028;2022-07-22T00:23:03;93786.88;;;21.26;80.92
11345;BME280;5727;42.600;23.028;2022-07-22T00:25:30;93798.31;;;21.20;81.21
11345;BME280;5727;42.600;23.028;2022-07-22T00:27:58;93804.44;;;21.17;80.86
11345;BME280;5727;42.600;23.028;2022-07-22T00:30:25;93798.38;;;21.09;81.22
11345;BME280;5727;42.600;23.028;2022-07-22T00:32:52;93790.41;;;21.02;81.08
11345;BME280;5727;42.600;23.028;2022-07-22T00:35:19;93800.66;;;21.04;82.00
11345;BME280;5727;42.600;23.028;2022-07-22T00:37:46;93798.78;;;20.97;81.81
11345;BME280;5727;42.600;23.028;2022-07-22T00:40:13;93797.66;;;20.94;81.73
11345;BME280;5727;42.600;23.028;2022-07-22T00:42:40;93799.19;;;20.88;82.18
11345;BME280;5727;42.600;23.028;2022-07-22T00:45:09;93797.69;;;20.87;82.55
11345;BME280;5727;42.600;23.028;2022-07-22T00:47:37;93794.66;;;20.85;82.52
11345;BME280;5727;42.600;23.028;2022-07-22T00:50:05;93790.47;;;20.88;83.28
11345;BME280;5727;42.600;23.028;2022-07-22T00:52:32;93798.47;;;20.81;83.18
11345;BME280;5727;42.600;23.028;2022-07-22T00:55:00;93793.16;;;20.77;83.40
11345;BME280;5727;42.600;23.028;2022-07-22T00:57:28;93797.72;;;20.80;82.81
11345;BME280;5727;42.600;23.028;2022-07-22T00:59:55;93791.66;;;20.76;83.10
11345;BME280;5727;42.600;23.028;2022-07-22T01:02:24;93789.34;;;20.75;82.84
11345;BME280;5727;42.600;23.028;2022-07-22T01:04:51;93792.06;;;20.68;83.68
11345;BME280;5727;42.600;23.028;2022-07-22T01:07:18;93801.66;;;20.48;84.10
11345;BME280;5727;42.600;23.028;2022-07-22T01:09:45;93800.50;;;20.49;84.72
11345;BME280;5727;42.600;23.028;2022-07-22T01:12:13;93801.66;;;20.48;84.74
11345;BME280;5727;42.600;23.028;2022-07-22T01:14:43;93800.13;;;20.33;85.00
11345;BME280;5727;42.600;23.028;2022-07-22T01:17:10;93800.91;;;20.30;84.59
11345;BME280;5727;42.600;23.028;2022-07-22T01:19:38;93794.47;;;20.24;84.29
11345;BME280;5727;42.600;23.028;2022-07-22T01:22:07;93796.38;;;20.27;84.58
11345;BME280;5727;42.600;23.028;2022-07-22T01:24:34;93801.31;;;20.25;84.94
11345;BME280;5727;42.600;23.028;2022-07-22T01:27:01;93801.31;;;20.25;85.22
11345;BME280;5727;42.600;23.028;2022-07-22T01:29:28;93785.72;;;20.13;85.74
11345;BME280;5727;42.600;23.028;2022-07-22T01:31:55;93796.38;;;20.20;85.63
11345;BME280;5727;42.600;23.028;2022-07-22T01:34:23;93798.63;;;20.18;85.55
11345;BME280;5727;42.600;23.028;2022-07-22T01:36:51;93792.16;;;20.12;85.67
11345;BME280;5727;42.600;23.028;2022-07-22T01:39:19;93794.09;;;20.15;85.73
11345;BME280;5727;42.600;23.028;2022-07-22T01:41:46;93803.97;;;20.11;86.52
11345;BME280;5727;42.600;23.028;2022-07-22T01:44:13;93800.16;;;20.04;87.04
11345;BME280;5727;42.600;23.028;2022-07-22T01:46:40;93802.44;;;20.09;86.89
11345;BME280;5727;42.600;23.028;2022-07-22T01:49:07;93787.66;;;20.01;87.21
11345;BME280;5727;42.600;23.028;2022-07-22T01:51:34;93804.72;;;20.00;87.11
11345;BME280;5727;42.600;23.028;2022-07-22T01:54:01;93803.97;;;20.00;87.70
11345;BME280;5727;42.600;23.028;2022-07-22T01:56:29;93811.56;;;19.94;88.01
11345;BME280;5727;42.600;23.028;2022-07-22T01:58:56;93807.78;;;19.88;88.15
11345;BME280;5727;42.600;23.028;2022-07-22T02:01:23;93796.00;;;19.79;88.60
11345;BME280;5727;42.600;23.028;2022-07-22T02:03:50;93804.34;;;19.84;88.68
11345;BME280;5727;42.600;23.028;2022-07-22T02:06:17;93808.16;;;19.80;89.06
11345;BME280;5727;42.600;23.028;2022-07-22T02:08:44;93801.69;;;19.81;88.79
11345;BME280;5727;42.600;23.028;2022-07-22T02:11:11;93815.75;;;19.78;89.17
11345;BME280;5727;42.600;23.028;2022-07-22T02:13:39;93807.03;;;19.70;89.14
11345;BME280;5727;42.600;23.028;2022-07-22T02:16:06;93806.66;;;19.68;89.70
11345;BME280;5727;42.600;23.028;2022-07-22T02:18:33;93807.41;;;19.65;89.87
11345;BME280;5727;42.600;23.028;2022-07-22T02:21:00;93808.16;;;19.62;90.66
11345;BME280;5727;42.600;23.028;2022-07-22T02:23:27;93813.88;;;19.61;90.31
11345;BME280;5727;42.600;23.028;2022-07-22T02:25:54;93791.47;;;19.48;90.80
11345;BME280;5727;42.600;23.028;2022-07-22T02:28:21;93810.81;;;19.55;90.63
11345;BME280;5727;42.600;23.028;2022-07-22T02:30:49;93805.47;;;19.48;91.14
11345;BME280;5727;42.600;23.028;2022-07-22T02:33:16;93806.25;;;19.42;91.04
11345;BME280;5727;42.600;23.028;2022-07-22T02:35:43;93802.44;;;19.43;90.92
11345;BME280;5727;42.600;23.028;2022-07-22T02:38:10;93802.81;;;19.41;91.11
11345;BME280;5727;42.600;23.028;2022-07-22T02:40:38;93810.34;;;19.25;91.18
11345;BME280;5727;42.600;23.028;2022-07-22T02:43:05;93814.53;;;19.23;91.06
11345;BME280;5727;42.600;23.028;2022-07-22T02:45:32;93806.53;;;19.08;91.55
11345;BME280;5727;42.600;23.028;2022-07-22T02:48:01;93814.88;;;19.10;91.97
11345;BME280;5727;42.600;23.028;2022-07-22T02:50:28;93814.13;;;19.10;91.62
11345;BME280;5727;42.600;23.028;2022-07-22T02:52:55;93811.84;;;19.08;91.78
11345;BME280;5727;42.600;23.028;2022-07-22T02:55:22;93814.13;;;19.10;91.73
11345;BME280;5727;42.600;23.028;2022-07-22T02:57:49;93815.28;;;19.12;91.94
11345;BME280;5727;42.600;23.028;2022-07-22T03:00:17;93819.81;;;19.12;91.92
11345;BME280;5727;42.600;23.028;2022-07-22T03:02:44;93812.22;;;19.14;91.65
11345;BME280;5727;42.600;23.028;2022-07-22T03:05:12;93821.72;;;19.15;91.60
11345;BME280;5727;42.600;23.028;2022-07-22T03:07:39;93809.19;;;19.08;91.86
11345;BME280;5727;42.600;23.028;2022-07-22T03:10:07;93816.44;;;19.15;91.39
11345;BME280;5727;42.600;23.028;2022-07-22T03:12:34;93818.69;;;19.13;91.64
11345;BME280;5727;42.600;23.028;2022-07-22T03:15:01;93816.00;;;19.09;91.94
11345;BME280;5727;42.600;23.028;2022-07-22T03:17:28;93818.31;;;19.07;91.86
11345;BME280;5727;42.600;23.028;2022-07-22T03:20:01;93828.53;;;19.05;92.20
11345;BME280;5727;42.600;23.028;2022-07-22T03:22:30;93826.59;;;18.99;92.23
11345;BME280;5727;42.600;23.028;2022-07-22T03:24:57;93824.34;;;18.97;91.93
11345;BME280;5727;42.600;23.028;2022-07-22T03:27:24;93832.31;;;19.01;91.76
11345;BME280;5727;42.600;23.028;2022-07-22T03:29:51;93825.06;;;18.91;91.90
11345;BME280;5727;42.600;23.028;2022-07-22T03:32:18;93830.38;;;18.91;92.26
11345;BME280;5727;42.600;23.028;2022-07-22T03:34:45;93831.16;;;18.98;92.09
11345;BME280;5727;42.600;23.028;2022-07-22T03:37:12;93838.00;;;19.06;91.70
11345;BME280;5727;42.600;23.028;2022-07-22T03:39:43;93825.88;;;19.09;91.38
11345;BME280;5727;42.600;23.028;2022-07-22T03:42:10;93838.78;;;19.10;91.21
11345;BME280;5727;42.600;23.028;2022-07-22T03:44:37;93835.38;;;19.13;91.36
11345;BME280;5727;42.600;23.028;2022-07-22T03:47:04;93828.94;;;19.11;91.41
11345;BME280;5727;42.600;23.028;2022-07-22T03:49:31;93841.09;;;19.19;91.89
11345;BME280;5727;42.600;23.028;2022-07-22T03:51:58;93832.75;;;19.21;91.85
11345;BME280;5727;42.600;23.028;2022-07-22T03:54:25;93841.84;;;19.23;92.07
11345;BME280;5727;42.600;23.028;2022-07-22T03:56:54;93843.00;;;19.22;91.99
11345;BME280;5727;42.600;23.028;2022-07-22T03:59:20;93841.09;;;19.23;91.79
11345;BME280;5727;42.600;23.028;2022-07-22T04:01:47;93851.00;;;19.33;92.06
11345;BME280;5727;42.600;23.028;2022-07-22T04:04:14;93847.22;;;19.37;91.87
11345;BME280;5727;42.600;23.028;2022-07-22T04:06:41;93849.88;;;19.44;91.70
11345;BME280;5727;42.600;23.028;2022-07-22T04:09:10;93845.34;;;19.48;91.28
11345;BME280;5727;42.600;23.028;2022-07-22T04:11:37;93851.81;;;19.58;90.27
11345;BME280;5727;42.600;23.028;2022-07-22T04:14:05;93850.69;;;19.62;89.67
11345;BME280;5727;42.600;23.028;2022-07-22T04:16:32;93831.31;;;19.51;88.99
11345;BME280;5727;42.600;23.028;2022-07-22T04:19:00;93846.53;;;19.68;88.80
11345;BME280;5727;42.600;23.028;2022-07-22T04:21:30;93854.50;;;19.75;88.63
11345;BME280;5727;42.600;23.028;2022-07-22T04:23:57;93854.09;;;19.77;88.54
11345;BME280;5727;42.600;23.028;2022-07-22T04:26:24;93849.19;;;19.82;88.36
11345;BME280;5727;42.600;23.028;2022-07-22T04:28:50;93849.19;;;19.89;88.17
11345;BME280;5727;42.600;23.028;2022-07-22T04:31:19;93841.59;;;19.91;87.53
11345;BME280;5727;42.600;23.028;2022-07-22T04:33:46;93859.44;;;20.05;87.75
11345;BME280;5727;42.600;23.028;2022-07-22T04:36:13;93855.25;;;20.07;86.25
11345;BME280;5727;42.600;23.028;2022-07-22T04:38:40;93857.94;;;19.90;87.50
11345;BME280;5727;42.600;23.028;2022-07-22T04:41:07;93855.28;;;19.93;87.36
11345;BME280;5727;42.600;23.028;2022-07-22T04:43:34;93853.38;;;20.01;87.15
11345;BME280;5727;42.600;23.028;2022-07-22T04:46:01;93852.59;;;20.15;86.39
11345;BME280;5727;42.600;23.028;2022-07-22T04:48:30;93859.09;;;20.21;85.51
11345;BME280;5727;42.600;23.028;2022-07-22T04:50:58;93860.22;;;20.34;84.69
11345;BME280;5727;42.600;23.028;2022-07-22T04:53:27;93849.19;;;20.32;84.92
11345;BME280;5727;42.600;23.028;2022-07-22T04:55:54;93859.06;;;20.45;85.43
11345;BME280;5727;42.600;23.028;2022-07-22T04:58:21;93859.06;;;20.45;84.94
11345;BME280;5727;42.600;23.028;2022-07-22T05:00:48;93856.00;;;20.47;84.73
11345;BME280;5727;42.600;23.028;2022-07-22T05:03:15;93857.91;;;20.53;84.62
11345;BME280;5727;42.600;23.028;2022-07-22T05:05:43;93847.25;;;20.50;83.14
11345;BME280;5727;42.600;23.028;2022-07-22T05:08:11;93855.56;;;20.69;82.70
11345;BME280;5727;42.600;23.028;2022-07-22T05:10:38;93860.84;;;20.83;82.63
11345;BME280;5727;42.600;23.028;2022-07-22T05:13:05;93858.56;;;20.89;82.74
11345;BME280;5727;42.600;23.028;2022-07-22T05:15:32;93864.59;;;21.00;81.76
11345;BME280;5727;42.600;23.028;2022-07-22T05:17:59;93861.56;;;21.05;81.57
11345;BME280;5727;42.600;23.028;2022-07-22T05:20:26;93859.25;;;21.14;80.41
11345;BME280;5727;42.600;23.028;2022-07-22T05:22:54;93864.56;;;21.18;79.39
11345;BME280;5727;42.600;23.028;2022-07-22T05:25:21;93870.25;;;21.20;78.94
11345;BME280;5727;42.600;23.028;2022-07-22T05:27:52;93866.06;;;21.15;78.83
11345;BME280;5727;42.600;23.028;2022-07-22T05:30:19;93864.50;;;21.28;77.91
11345;BME280;5727;42.600;23.028;2022-07-22T05:32:46;93872.13;;;21.30;78.70
11345;BME280;5727;42.600;23.028;2022-07-22T05:35:13;93872.81;;;21.41;77.99
11345;BME280;5727;42.600;23.028;2022-07-22T05:37:40;93865.13;;;21.50;78.38
11345;BME280;5727;42.600;23.028;2022-07-22T05:40:09;93868.19;;;21.55;78.39
11345;BME280;5727;42.600;23.028;2022-07-22T05:42:36;93869.72;;;21.53;78.08
11345;BME280;5727;42.600;23.028;2022-07-22T05:45:04;93876.56;;;21.50;78.71
11345;BME280;5727;42.600;23.028;2022-07-22T05:47:31;93873.50;;;21.52;79.31
11345;BME280;5727;42.600;23.028;2022-07-22T05:49:58;93868.44;;;21.71;79.62
11345;BME280;5727;42.600;23.028;2022-07-22T05:52:25;93876.81;;;21.73;79.26
11345;BME280;5727;42.600;23.028;2022-07-22T05:54:52;93871.44;;;21.80;78.59
11345;BME280;5727;42.600;23.028;2022-07-22T05:57:20;93869.84;;;21.94;77.82
11345;BME280;5727;42.600;23.028;2022-07-22T05:59:47;93871.78;;;21.90;79.41
11345;BME280;5727;42.600;23.028;2022-07-22T06:02:14;93872.44;;;22.04;78.96
11345;BME280;5727;42.600;23.028;2022-07-22T06:04:41;93872.38;;;22.11;78.78
11345;BME280;5727;42.600;23.028;2022-07-22T06:07:08;93857.41;;;22.24;78.32
11345;BME280;5727;42.600;23.028;2022-07-22T06:09:35;93875.50;;;22.47;77.95
11345;BME280;5727;42.600;23.028;2022-07-22T06:12:03;93870.44;;;22.63;77.14
11345;BME280;5727;42.600;23.028;2022-07-22T06:14:31;93868.75;;;22.76;76.13
11345;BME280;5727;42.600;23.028;2022-07-22T06:16:58;93859.16;;;22.79;75.11
11345;BME280;5727;42.600;23.028;2022-07-22T06:19:25;93858.63;;;22.94;72.57
11345;BME280;5727;42.600;23.028;2022-07-22T06:21:54;93860.06;;;23.02;72.17
11345;BME280;5727;42.600;23.028;2022-07-22T06:24:21;93866.03;;;23.13;72.24
11345;BME280;5727;42.600;23.028;2022-07-22T06:26:47;93874.69;;;23.24;71.38
11345;BME280;5727;42.600;23.028;2022-07-22T06:29:15;93868.78;;;23.40;71.00
11345;BME280;5727;42.600;23.028;2022-07-22T06:31:43;93862.59;;;23.46;68.93
11345;BME280;5727;42.600;23.028;2022-07-22T06:34:10;93871.28;;;23.54;68.60
11345;BME280;5727;42.600;23.028;2022-07-22T06:36:37;93867.75;;;23.60;67.84
11345;BME280;5727;42.600;23.028;2022-07-22T06:39:04;93865.78;;;23.65;67.99
11345;BME280;5727;42.600;23.028;2022-07-22T06:41:31;93872.81;;;23.82;67.91
11345;BME280;5727;42.600;23.028;2022-07-22T06:43:58;93867.22;;;23.96;66.41
11345;BME280;5727;42.600;23.028;2022-07-22T06:46:25;93863.22;;;24.11;65.59
11345;BME280;5727;42.600;23.028;2022-07-22T06:48:53;93869.50;;;24.24;64.37
11345;BME280;5727;42.600;23.028;2022-07-22T06:51:20;93863.22;;;24.34;62.72
11345;BME280;5727;42.600;23.028;2022-07-22T06:53:49;93869.84;;;24.49;61.51
11345;BME280;5727;42.600;23.028;2022-07-22T06:56:16;93869.59;;;24.63;58.30
11345;BME280;5727;42.600;23.028;2022-07-22T06:58:43;93856.81;;;24.71;57.38
11345;BME280;5727;42.600;23.028;2022-07-22T07:01:10;93859.69;;;24.83;57.09
11345;BME280;5727;42.600;23.028;2022-07-22T07:03:37;93862.56;;;24.92;57.76
11345;BME280;5727;42.600;23.028;2022-07-22T07:06:09;93866.97;;;25.02;57.91
11345;BME280;5727;42.600;23.028;2022-07-22T07:08:36;93865.06;;;25.03;56.97
11345;BME280;5727;42.600;23.028;2022-07-22T07:11:04;93864.03;;;25.16;56.77
11345;BME280;5727;42.600;23.028;2022-07-22T07:13:31;93872.53;;;25.31;56.04
11345;BME280;5727;42.600;23.028;2022-07-22T07:15:59;93865.66;;;25.30;55.75
11345;BME280;5727;42.600;23.028;2022-07-22T07:18:26;93862.41;;;25.38;55.62
11345;BME280;5727;42.600;23.028;2022-07-22T07:20:53;93866.69;;;25.56;54.70
11345;BME280;5727;42.600;23.028;2022-07-22T07:23:22;93865.69;;;25.66;53.13
11345;BME280;5727;42.600;23.028;2022-07-22T07:25:49;93859.00;;;25.74;52.93
11345;BME280;5727;42.600;23.028;2022-07-22T07:28:16;93864.03;;;25.88;54.08
11345;BME280;5727;42.600;23.028;2022-07-22T07:30:49;93861.97;;;25.95;53.78
11345;BME280;5727;42.600;23.028;2022-07-22T07:33:16;93872.72;;;26.11;53.12
11345;BME280;5727;42.600;23.028;2022-07-22T07:35:43;93875.19;;;26.22;51.97
11345;BME280;5727;42.600;23.028;2022-07-22T07:38:14;93866.03;;;26.36;51.33
11345;BME280;5727;42.600;23.028;2022-07-22T07:40:43;93869.88;;;26.51;49.51
11345;BME280;5727;42.600;23.028;2022-07-22T07:43:10;93869.25;;;26.59;47.34
11345;BME280;5727;42.600;23.028;2022-07-22T07:45:38;93863.22;;;26.71;46.34
11345;BME280;5727;42.600;23.028;2022-07-22T07:48:06;93871.28;;;26.71;46.62
11345;BME280;5727;42.600;23.028;2022-07-22T07:50:34;93875.88;;;26.87;44.88
11345;BME280;5727;42.600;23.028;2022-07-22T07:53:01;93865.56;;;26.85;46.13
11345;BME280;5727;42.600;23.028;2022-07-22T07:55:29;93877.75;;;27.02;44.23
11345;BME280;5727;42.600;23.028;2022-07-22T07:58:06;93875.75;;;27.06;43.84
11345;BME280;5727;42.600;23.028;2022-07-22T08:00:35;93866.59;;;27.16;43.19
11345;BME280;5727;42.600;23.028;2022-07-22T08:05:55;93874.25;;;27.18;43.09
11345;BME280;5727;42.600;23.028;2022-07-22T08:08:25;93870.72;;;27.21;43.04
11345;BME280;5727;42.600;23.028;2022-07-22T08:10:52;93863.41;;;27.22;42.91
11345;BME280;5727;42.600;23.028;2022-07-22T08:13:34;93869.25;;;27.33;42.52
11345;BME280;5727;42.600;23.028;2022-07-22T08:16:05;93870.91;;;27.43;42.11
11345;BME280;5727;42.600;23.028;2022-07-22T08:18:36;93874.03;;;27.54;43.10
11345;BME280;5727;42.600;23.028;2022-07-22T08:21:04;93864.34;;;27.56;42.84
11345;BME280;5727;42.600;23.028;2022-07-22T08:23:32;93872.09;;;27.67;41.30
11345;BME280;5727;42.600;23.028;2022-07-22T08:25:59;93872.13;;;27.79;40.70
11345;BME280;5727;42.600;23.028;2022-07-22T08:28:31;93867.50;;;27.92;39.29
11345;BME280;5727;42.600;23.028;2022-07-22T08:30:58;93850.81;;;27.85;39.82
11345;BME280;5727;42.600;23.028;2022-07-22T08:33:29;93869.25;;;27.99;38.49
11345;BME280;5727;42.600;23.028;2022-07-22T08:36:02;93865.78;;;28.11;37.91
11345;BME280;5727;42.600;23.028;2022-07-22T08:38:30;93859.44;;;28.05;38.65
11345;BME280;5727;42.600;23.028;2022-07-22T08:41:00;93862.44;;;28.07;37.44
11345;BME280;5727;42.600;23.028;2022-07-22T08:43:27;93863.72;;;28.15;37.44
11345;BME280;5727;42.600;23.028;2022-07-22T08:45:58;93854.25;;;28.23;38.56
11345;BME280;5727;42.600;23.028;2022-07-22T08:48:26;93870.81;;;28.47;37.63
11345;BME280;5727;42.600;23.028;2022-07-22T08:51:07;93861.63;;;28.57;37.08
11345;BME280;5727;42.600;23.028;2022-07-22T08:53:36;93872.84;;;28.68;37.45
11345;BME280;5727;42.600;23.028;2022-07-22T08:56:05;93866.63;;;28.80;36.88
11345;BME280;5727;42.600;23.028;2022-07-22T08:58:34;93866.59;;;28.92;36.60
11345;BME280;5727;42.600;23.028;2022-07-22T09:01:10;93868.09;;;28.93;35.03
11345;BME280;5727;42.600;23.028;2022-07-22T09:03:45;93854.56;;;29.06;35.37
11345;BME280;5727;42.600;23.028;2022-07-22T09:06:13;93866.97;;;29.16;35.26
11345;BME280;5727;42.600;23.028;2022-07-22T09:08:51;93868.91;;;29.16;35.83
11345;BME280;5727;42.600;23.028;2022-07-22T09:11:20;93870.78;;;29.28;35.30
11345;BME280;5727;42.600;23.028;2022-07-22T09:13:48;93871.88;;;29.39;35.04
11345;BME280;5727;42.600;23.028;2022-07-22T09:16:38;93864.84;;;29.42;34.19
11345;BME280;5727;42.600;23.028;2022-07-22T09:19:05;93875.13;;;29.56;33.40
11345;BME280;5727;42.600;23.028;2022-07-22T09:21:32;93864.47;;;29.52;33.60
11345;BME280;5727;42.600;23.028;2022-07-22T09:24:01;93866.59;;;29.57;33.46
11345;BME280;5727;42.600;23.028;2022-07-22T09:26:32;93871.22;;;29.57;32.44
11345;BME280;5727;42.600;23.028;2022-07-22T09:29:00;93857.88;;;29.53;32.52
11345;BME280;5727;42.600;23.028;2022-07-22T09:31:33;93865.44;;;29.67;32.23
11345;BME280;5727;42.600;23.028;2022-07-22T09:34:00;93869.22;;;29.70;33.70
11345;BME280;5727;42.600;23.028;2022-07-22T09:36:28;93868.22;;;29.76;32.66
11345;BME280;5727;42.600;23.028;2022-07-22T09:38:56;93870.38;;;29.91;33.19
11345;BME280;5727;42.600;23.028;2022-07-22T09:41:23;93868.31;;;29.95;33.06
11345;BME280;5727;42.600;23.028;2022-07-22T09:43:50;93864.56;;;30.01;32.71
11345;BME280;5727;42.600;23.028;2022-07-22T09:46:34;93873.59;;;30.07;34.51
11345;BME280;5727;42.600;23.028;2022-07-22T09:49:02;93866.88;;;30.12;32.21
11345;BME280;5727;42.600;23.028;2022-07-22T09:51:29;93868.63;;;30.06;31.60
11345;BME280;5727;42.600;23.028;2022-07-22T09:53:57;93863.84;;;30.10;32.35
11345;BME280;5727;42.600;23.028;2022-07-22T09:56:27;93860.09;;;30.07;32.22
11345;BME280;5727;42.600;23.028;2022-07-22T09:58:56;93859.78;;;30.14;32.36
11345;BME280;5727;42.600;23.028;2022-07-22T10:01:23;93859.28;;;30.28;32.29
11345;BME280;5727;42.600;23.028;2022-07-22T10:03:53;93853.59;;;30.35;31.45
11345;BME280;5727;42.600;23.028;2022-07-22T10:06:22;93852.41;;;30.45;31.77
11345;BME280;5727;42.600;23.028;2022-07-22T10:08:50;93853.47;;;30.57;31.28
11345;BME280;5727;42.600;23.028;2022-07-22T10:11:19;93851.81;;;30.59;30.84
11345;BME280;5727;42.600;23.028;2022-07-22T10:13:46;93842.94;;;30.50;30.28
11345;BME280;5727;42.600;23.028;2022-07-22T10:16:14;93853.47;;;30.57;30.85
11345;BME280;5727;42.600;23.028;2022-07-22T10:18:45;93835.00;;;30.46;31.21
11345;BME280;5727;42.600;23.028;2022-07-22T10:21:14;93844.78;;;30.62;31.91
11345;BME280;5727;42.600;23.028;2022-07-22T10:24:11;93852.44;;;30.73;32.34
11345;BME280;5727;42.600;23.028;2022-07-22T10:26:49;93843.00;;;30.86;30.27
11345;BME280;5727;42.600;23.028;2022-07-22T10:29:27;93836.66;;;30.80;30.71
11345;BME280;5727;42.600;23.028;2022-07-22T10:35:23;93844.06;;;30.89;31.08
11345;BME280;5727;42.600;23.028;2022-07-22T10:37:55;93832.63;;;30.94;30.09
11345;BME280;5727;42.600;23.028;2022-07-22T10:40:28;93838.66;;;30.89;29.82
11345;BME280;5727;42.600;23.028;2022-07-22T10:43:11;93834.75;;;30.99;30.81
11345;BME280;5727;42.600;23.028;2022-07-22T10:45:41;93828.09;;;31.09;30.58
11345;BME280;5727;42.600;23.028;2022-07-22T10:48:10;93841.81;;;30.96;30.13
11345;BME280;5727;42.600;23.028;2022-07-22T10:50:46;93839.09;;;30.96;29.39
11345;BME280;5727;42.600;23.028;2022-07-22T10:53:18;93828.59;;;30.89;29.67
11345;BME280;5727;42.600;23.028;2022-07-22T10:56:00;93840.28;;;30.95;29.85
11345;BME280;5727;42.600;23.028;2022-07-22T10:58:42;93842.25;;;30.95;30.08
11345;BME280;5727;42.600;23.028;2022-07-22T11:01:10;93844.34;;;31.00;30.34
11345;BME280;5727;42.600;23.028;2022-07-22T11:03:39;93840.16;;;30.99;30.13
11345;BME280;5727;42.600;23.028;2022-07-22T11:06:16;93839.25;;;31.02;29.34
11345;BME280;5727;42.600;23.028;2022-07-22T11:08:46;93831.41;;;31.04;29.69
11345;BME280;5727;42.600;23.028;2022-07-22T11:11:14;93831.41;;;31.04;30.30
11345;BME280;5727;42.600;23.028;2022-07-22T11:13:42;93824.03;;;31.13;30.11
11345;BME280;5727;42.600;23.028;2022-07-22T11:16:14;93832.91;;;31.23;29.92
11345;BME280;5727;42.600;23.028;2022-07-22T11:18:51;93834.69;;;31.35;29.59
11345;BME280;5727;42.600;23.028;2022-07-22T11:21:21;93821.78;;;31.39;30.08
11345;BME280;5727;42.600;23.028;2022-07-22T11:23:53;93834.84;;;31.40;30.14
11345;BME280;5727;42.600;23.028;2022-07-22T11:26:26;93824.47;;;31.30;30.73
11345;BME280;5727;42.600;23.028;2022-07-22T11:28:58;93831.38;;;31.40;30.05
11345;BME280;5727;42.600;23.028;2022-07-22T11:31:26;93812.28;;;31.34;29.54
11345;BME280;5727;42.600;23.028;2022-07-22T11:34:04;93813.34;;;31.37;30.26
11345;BME280;5727;42.600;23.028;2022-07-22T11:36:32;93822.75;;;31.60;29.17
11345;BME280;5727;42.600;23.028;2022-07-22T11:39:01;93815.44;;;31.93;28.39
11345;BME280;5727;42.600;23.028;2022-07-22T11:41:29;93817.25;;;32.90;26.39
11345;BME280;5727;42.600;23.028;2022-07-22T11:43:57;93819.72;;;33.90;26.17
11345;BME280;5727;42.600;23.028;2022-07-22T11:46:27;93816.41;;;36.35;23.39
11345;BME280;5727;42.600;23.028;2022-07-22T11:48:55;93798.63;;;38.65;20.86
11345;BME280;5727;42.600;23.028;2022-07-22T11:51:28;93807.41;;;41.25;18.44
11345;BME280;5727;42.600;23.028;2022-07-22T11:53:56;93809.78;;;40.24;18.77
11345;BME280;5727;42.600;23.028;2022-07-22T11:56:25;93811.06;;;40.47;18.75
11345;BME280;5727;42.600;23.028;2022-07-22T11:58:55;93807.22;;;42.05;17.80
11345;BME280;5727;42.600;23.028;2022-07-22T12:01:23;93790.16;;;42.19;17.34
11345;BME280;5727;42.600;23.028;2022-07-22T12:03:53;93802.69;;;41.57;17.79
11345;BME280;5727;42.600;23.028;2022-07-22T12:06:22;93792.00;;;42.30;17.09
11345;BME280;5727;42.600;23.028;2022-07-22T12:08:51;93797.47;;;43.08;16.05
11345;BME280;5727;42.600;23.028;2022-07-22T12:11:22;93794.78;;;42.69;16.51
11345;BME280;5727;42.600;23.028;2022-07-22T12:13:52;93793.81;;;43.39;16.10
11345;BME280;5727;42.600;23.028;2022-07-22T12:16:24;93785.25;;;44.33;15.18
11345;BME280;5727;42.600;23.028;2022-07-22T12:33:50;93781.47;;;44.15;13.98
11345;BME280;5727;42.600;23.028;2022-07-22T12:36:17;93778.16;;;45.09;13.70
11345;BME280;5727;42.600;23.028;2022-07-22T12:38:44;93784.63;;;44.19;14.44
11345;BME280;5727;42.600;23.028;2022-07-22T12:41:28;93780.00;;;44.14;13.88
11345;BME280;5727;42.600;23.028;2022-07-22T12:43:55;93779.94;;;44.63;13.38
11345;BME280;5727;42.600;23.028;2022-07-22T12:46:22;93778.84;;;45.02;13.31
11345;BME280;5727;42.600;23.028;2022-07-22T12:48:52;93772.28;;;44.77;13.64
11345;BME280;5727;42.600;23.028;2022-07-22T12:51:20;93777.66;;;45.18;13.28
11345;BME280;5727;42.600;23.028;2022-07-22T12:53:46;93779.63;;;45.68;12.94
11345;BME280;5727;42.600;23.028;2022-07-22T12:56:13;93776.88;;;45.83;12.51
11345;BME280;5727;42.600;23.028;2022-07-22T12:58:40;93775.50;;;45.39;13.43
11345;BME280;5727;42.600;23.028;2022-07-22T13:01:07;93769.56;;;45.35;13.32
11345;BME280;5727;42.600;23.028;2022-07-22T13:03:35;93764.03;;;45.27;13.25
11345;BME280;5727;42.600;23.028;2022-07-22T13:06:04;93767.34;;;45.26;12.88
11345;BME280;5727;42.600;23.028;2022-07-22T13:08:32;93764.69;;;45.05;13.40
11345;BME280;5727;42.600;23.028;2022-07-22T13:10:59;93768.09;;;44.48;13.52
11345;BME280;5727;42.600;23.028;2022-07-22T13:13:26;93780.28;;;44.88;13.42
11345;BME280;5727;42.600;23.028;2022-07-22T13:15:52;93760.66;;;43.52;14.40
11345;BME280;5727;42.600;23.028;2022-07-22T13:18:20;93771.84;;;44.09;14.38
11345;BME280;5727;42.600;23.028;2022-07-22T13:20:47;93770.00;;;44.11;14.21
11345;BME280;5727;42.600;23.028;2022-07-22T13:23:15;93765.41;;;43.31;14.20
11345;BME280;5727;42.600;23.028;2022-07-22T13:25:42;93756.09;;;42.74;14.51
11345;BME280;5727;42.600;23.028;2022-07-22T13:28:09;93767.97;;;42.56;15.45